Time;durP1;ratioP1;P1;durP2;ratioP2;P2;SDS_P1;SDS_P2;PMS_P1;PMS_P2;Temp;Humidity;BMP_temperature;BMP_pressure;BME280_temperature;BME280_humidity;BME280_pressure;Samples;Min_cycle;Max_cycle;Signal;HPM_P1;HPM_P2
2023/12/08 00:01:36;;;;;;;41.00;18.50;;;-6.20;39.80;;;;;;4959477;28;46401;-69
2023/12/08 00:04:01;;;;;;;42.57;18.10;;;-6.30;39.90;;;;;;4958856;28;46586;-68
2023/12/08 00:06:27;;;;;;;38.40;14.80;;;-6.30;39.80;;;;;;4959049;28;46461;-69
2023/12/08 00:08:52;;;;;;;33.60;14.30;;;-6.20;39.50;;;;;;4957576;28;46572;-68
2023/12/08 00:11:18;;;;;;;37.23;16.03;;;-6.10;38.80;;;;;;4958496;28;46556;-70
2023/12/08 00:13:44;;;;;;;33.27;13.67;;;-6.10;38.80;;;;;;4960195;28;46337;-69
2023/12/08 00:16:10;;;;;;;26.13;12.93;;;-6.10;38.80;;;;;;4956543;28;46501;-69
2023/12/08 00:18:36;;;;;;;28.43;12.30;;;-6.10;38.80;;;;;;4958723;28;46341;-69
2023/12/08 00:21:02;;;;;;;26.55;12.10;;;-6.20;38.80;;;;;;4959139;28;46352;-69
2023/12/08 00:23:28;;;;;;;26.80;12.98;;;-6.00;38.90;;;;;;4958873;28;48174;-69
2023/12/08 00:25:54;;;;;;;22.67;11.80;;;-5.90;39.00;;;;;;4957123;28;46447;-69
2023/12/08 00:28:19;;;;;;;23.63;10.70;;;-5.80;39.10;;;;;;4956894;28;46684;-68
2023/12/08 00:30:45;;;;;;;30.17;13.60;;;-5.70;39.20;;;;;;4956623;28;46498;-69
2023/12/08 00:33:10;;;;;;;24.57;11.77;;;-5.70;39.10;;;;;;4959041;28;47251;-70
2023/12/08 00:35:36;;;;;;;26.73;12.40;;;-5.60;39.10;;;;;;4959234;28;46705;-70
2023/12/08 00:38:02;;;;;;;24.83;12.30;;;-5.50;39.00;;;;;;4954272;28;46544;-69
2023/12/08 00:40:28;;;;;;;28.67;12.32;;;-5.50;38.90;;;;;;4953277;28;46759;-69
2023/12/08 00:42:54;;;;;;;39.80;15.27;;;-5.40;38.60;;;;;;4954871;28;46474;-69
2023/12/08 00:45:21;;;;;;;32.05;14.25;;;-5.50;38.80;;;;;;4960294;28;46484;-70
2023/12/08 00:47:46;;;;;;;37.20;15.73;;;-5.50;39.30;;;;;;4955708;28;46682;-70
2023/12/08 00:50:12;;;;;;;27.87;14.20;;;-5.50;39.20;;;;;;4958963;28;46644;-70
2023/12/08 00:52:38;;;;;;;36.33;16.80;;;-5.50;38.90;;;;;;4956227;28;46398;-70
2023/12/08 00:55:04;;;;;;;32.60;15.47;;;-5.60;39.30;;;;;;4955118;28;46418;-70
2023/12/08 00:57:29;;;;;;;26.60;12.02;;;-5.70;39.10;;;;;;4956785;28;47733;-70
2023/12/08 00:59:55;;;;;;;22.37;11.67;;;-5.70;39.20;;;;;;4959934;28;46477;-70
2023/12/08 01:02:20;;;;;;;22.10;11.20;;;-5.70;39.20;;;;;;4958339;28;46545;-69
2023/12/08 01:04:46;;;;;;;22.27;10.50;;;-5.70;39.20;;;;;;4961183;28;46483;-68
2023/12/08 01:07:11;;;;;;;23.40;10.37;;;-5.60;39.30;;;;;;4957332;28;46726;-68
2023/12/08 01:09:37;;;;;;;17.07;9.87;;;-5.50;39.40;;;;;;4956679;28;46404;-70
2023/12/08 01:12:03;;;;;;;17.90;8.70;;;-5.40;38.80;;;;;;4955655;28;46370;-70
2023/12/08 01:14:28;;;;;;;22.83;10.10;;;-5.30;38.60;;;;;;4958419;28;46445;-69
2023/12/08 01:16:54;;;;;;;23.37;9.43;;;-5.20;38.60;;;;;;4956640;28;46295;-70
2023/12/08 01:19:19;;;;;;;18.40;9.70;;;-5.20;38.60;;;;;;4960475;28;46655;-69
2023/12/08 01:21:45;;;;;;;22.03;9.80;;;-5.10;38.40;;;;;;4957485;28;46225;-70
2023/12/08 01:24:11;;;;;;;19.97;10.00;;;-4.90;38.30;;;;;;4954829;28;46645;-69
2023/12/08 01:26:36;;;;;;;21.17;9.93;;;-4.80;38.20;;;;;;4953608;28;46534;-70
2023/12/08 01:29:02;;;;;;;16.73;8.93;;;-4.70;38.00;;;;;;4959836;28;46416;-69
2023/12/08 01:31:27;;;;;;;19.90;9.50;;;-4.70;37.90;;;;;;4957882;28;46600;-70
2023/12/08 01:33:53;;;;;;;22.70;9.90;;;-4.60;37.70;;;;;;4957378;28;46454;-70
2023/12/08 01:36:19;;;;;;;24.70;10.60;;;-4.50;37.50;;;;;;4956258;28;46489;-70
2023/12/08 01:38:45;;;;;;;21.50;10.40;;;-4.30;37.20;;;;;;4955014;28;46477;-70
2023/12/08 01:41:15;;;;;;;20.23;9.85;;;-4.20;37.00;;;;;;4957578;28;47206;-70
2023/12/08 01:43:45;;;;;;;19.33;10.30;;;-4.20;36.90;;;;;;4966243;28;46442;-70
2023/12/08 01:46:19;;;;;;;22.20;12.05;;;-4.30;36.90;;;;;;4957830;28;46405;-70
2023/12/08 01:48:46;;;;;;;27.70;12.93;;;-4.30;37.20;;;;;;4957459;28;45983;-70
2023/12/08 01:51:13;;;;;;;23.92;11.77;;;-4.30;37.30;;;;;;4957507;28;46478;-70
2023/12/08 01:53:40;;;;;;;25.23;12.48;;;-4.30;37.50;;;;;;4958733;28;46485;-70
2023/12/08 01:56:07;;;;;;;24.98;13.02;;;-4.30;37.70;;;;;;4957458;28;46435;-69
2023/12/08 01:58:34;;;;;;;26.50;11.80;;;-4.30;38.30;;;;;;4956168;28;46751;-69
2023/12/08 02:01:03;;;;;;;26.08;11.40;;;-4.30;38.00;;;;;;4958379;28;46416;-69
2023/12/08 02:03:31;;;;;;;22.67;12.40;;;-4.20;37.80;;;;;;4955828;28;46738;-70
2023/12/08 02:05:57;;;;;;;23.23;11.68;;;-4.00;37.40;;;;;;4956622;28;46548;-69
2023/12/08 02:08:23;;;;;;;26.50;12.48;;;-3.90;37.10;;;;;;4959402;28;46646;-69
2023/12/08 02:10:49;;;;;;;27.50;12.00;;;-3.70;37.00;;;;;;4957709;28;47224;-69
2023/12/08 02:13:16;;;;;;;25.83;12.60;;;-3.70;37.00;;;;;;4957141;28;46429;-68
2023/12/08 02:15:45;;;;;;;20.25;11.93;;;-3.50;36.90;;;;;;4955944;28;46617;-69
2023/12/08 02:18:13;;;;;;;24.90;12.77;;;-3.50;36.80;;;;;;4956295;28;46641;-69
2023/12/08 02:20:39;;;;;;;23.77;12.05;;;-3.60;38.10;;;;;;4957592;28;47106;-69
2023/12/08 02:23:06;;;;;;;17.80;9.43;;;-3.60;37.30;;;;;;4959561;28;46070;-71
2023/12/08 02:25:32;;;;;;;16.42;8.90;;;-3.60;37.30;;;;;;4959814;28;46385;-70
2023/12/08 02:27:58;;;;;;;19.00;9.32;;;-3.60;37.50;;;;;;4960076;28;46508;-70
2023/12/08 02:30:23;;;;;;;21.10;9.70;;;-3.60;37.60;;;;;;4960892;28;46370;-70
2023/12/08 02:32:58;;;;;;;20.30;9.80;;;-3.60;37.40;;;;;;4961668;28;46423;-70
2023/12/08 02:35:24;;;;;;;17.95;10.55;;;-3.60;37.20;;;;;;4974903;28;46522;-70
2023/12/08 02:37:53;;;;;;;20.67;9.70;;;-3.50;37.40;;;;;;4960316;28;46611;-70
2023/12/08 02:40:18;;;;;;;18.35;10.23;;;-3.40;37.50;;;;;;4961709;28;47366;-70
2023/12/08 02:42:44;;;;;;;18.53;10.37;;;-3.30;37.30;;;;;;4959557;28;46842;-70
2023/12/08 02:45:10;;;;;;;20.70;10.07;;;-3.20;37.20;;;;;;4961105;28;46681;-70
2023/12/08 02:47:35;;;;;;;17.27;9.73;;;-3.10;37.10;;;;;;4960355;28;46622;-70
2023/12/08 02:50:01;;;;;;;18.20;9.73;;;-3.10;37.20;;;;;;4961375;28;46410;-70
2023/12/08 02:52:26;;;;;;;18.83;9.03;;;-3.10;37.30;;;;;;4960368;28;46396;-70
2023/12/08 02:54:52;;;;;;;18.17;9.90;;;-3.00;37.20;;;;;;4958713;28;46416;-70
2023/12/08 02:57:17;;;;;;;21.83;11.30;;;-3.00;37.30;;;;;;4957489;28;46220;-70
2023/12/08 02:59:43;;;;;;;17.90;10.60;;;-3.00;37.60;;;;;;4960591;28;47218;-70
2023/12/08 03:02:09;;;;;;;18.73;10.47;;;-3.00;37.70;;;;;;4959531;28;46387;-69
2023/12/08 03:04:34;;;;;;;19.97;10.93;;;-2.80;37.40;;;;;;4960617;28;46548;-70
2023/12/08 03:07:00;;;;;;;23.67;11.70;;;-2.70;36.90;;;;;;4963902;28;46580;-68
2023/12/08 03:09:25;;;;;;;19.10;10.30;;;-2.60;36.80;;;;;;4958266;28;46358;-70
2023/12/08 03:11:52;;;;;;;17.53;10.10;;;-2.50;36.70;;;;;;4958767;28;46412;-70
2023/12/08 03:14:17;;;;;;;18.92;11.48;;;-2.50;36.60;;;;;;4957280;28;46539;-71
2023/12/08 03:16:45;;;;;;;22.47;11.37;;;-2.50;36.90;;;;;;4957419;28;46405;-70
2023/12/08 03:19:11;;;;;;;17.98;9.48;;;-2.40;37.10;;;;;;4958995;28;47191;-69
2023/12/08 03:21:37;;;;;;;22.23;10.57;;;-2.40;37.20;;;;;;4963050;28;46537;-69
2023/12/08 03:24:03;;;;;;;17.83;10.13;;;-2.40;37.40;;;;;;4958147;28;46516;-70
2023/12/08 03:26:28;;;;;;;20.20;10.63;;;-2.50;37.90;;;;;;4960840;28;45967;-70
2023/12/08 03:28:54;;;;;;;20.07;10.97;;;-2.50;38.30;;;;;;4960113;28;46608;-70
2023/12/08 03:31:24;;;;;;;19.83;10.97;;;-2.40;38.40;;;;;;4959187;28;46323;-70
2023/12/08 03:33:50;;;;;;;22.58;11.63;;;-2.30;38.00;;;;;;4957404;28;46486;-71
2023/12/08 03:36:15;;;;;;;22.20;11.30;;;-2.20;38.10;;;;;;4959562;28;46452;-70
2023/12/08 03:38:41;;;;;;;23.43;11.57;;;-2.20;38.30;;;;;;4958223;28;48482;-71
2023/12/08 03:41:07;;;;;;;21.23;11.57;;;-2.10;38.30;;;;;;4964435;28;46418;-71
2023/12/08 03:43:32;;;;;;;15.43;10.20;;;-2.10;38.30;;;;;;4959678;28;46528;-70
2023/12/08 03:45:58;;;;;;;19.63;11.20;;;-2.00;38.30;;;;;;4958943;28;46645;-71
2023/12/08 03:48:23;;;;;;;20.70;11.97;;;-1.90;37.90;;;;;;4959669;28;46442;-70
2023/12/08 03:50:49;;;;;;;16.20;10.83;;;-1.90;37.90;;;;;;4958107;28;46435;-69
2023/12/08 03:53:14;;;;;;;21.27;11.60;;;-1.90;38.20;;;;;;4961031;28;46299;-70
2023/12/08 03:55:40;;;;;;;20.93;12.30;;;-1.90;38.60;;;;;;4957118;28;46639;-70
2023/12/08 03:58:05;;;;;;;21.43;10.37;;;-1.80;38.50;;;;;;4959551;28;46412;-69
2023/12/08 04:00:31;;;;;;;19.00;11.30;;;-1.70;38.40;;;;;;4959556;28;46791;-70
2023/12/08 04:02:56;;;;;;;22.03;11.10;;;-1.70;38.30;;;;;;4962258;28;46404;-69
2023/12/08 04:05:22;;;;;;;18.73;10.93;;;-1.90;39.00;;;;;;4964260;28;46554;-68
2023/12/08 04:07:48;;;;;;;16.90;10.83;;;-1.90;39.50;;;;;;4963773;28;46461;-69
2023/12/08 04:10:13;;;;;;;19.23;11.43;;;-2.00;39.70;;;;;;4956205;28;46742;-68
2023/12/08 04:12:39;;;;;;;18.90;10.90;;;-2.10;40.30;;;;;;4947784;28;46448;-69
2023/12/08 04:15:05;;;;;;;22.10;11.33;;;-2.10;40.50;;;;;;4954795;28;45911;-69
2023/12/08 04:17:30;;;;;;;19.27;11.10;;;-2.10;40.70;;;;;;4961573;28;47219;-68
2023/12/08 04:19:56;;;;;;;22.63;12.23;;;-2.00;40.40;;;;;;4964175;28;46465;-68
2023/12/08 04:22:22;;;;;;;19.53;11.70;;;-2.00;40.40;;;;;;4963590;28;46459;-69
2023/12/08 04:24:47;;;;;;;19.10;11.23;;;-2.00;40.80;;;;;;4951903;28;46350;-69
2023/12/08 04:27:13;;;;;;;19.57;11.40;;;-2.00;40.70;;;;;;4944680;28;46424;-68
2023/12/08 04:29:38;;;;;;;18.13;10.77;;;-1.90;40.60;;;;;;4961723;28;46266;-69
2023/12/08 04:32:04;;;;;;;20.90;11.93;;;-1.80;40.20;;;;;;4959191;28;46382;-69
2023/12/08 04:34:30;;;;;;;24.20;12.10;;;-1.80;40.20;;;;;;4950257;28;46486;-69
2023/12/08 04:36:55;;;;;;;18.80;10.77;;;-1.70;40.20;;;;;;4954401;28;47098;-69
2023/12/08 04:39:21;;;;;;;20.53;11.10;;;-1.60;40.00;;;;;;4972300;23;46441;-67
2023/12/08 04:41:47;;;;;;;22.40;12.33;;;-1.50;40.00;;;;;;4977695;28;46503;-67
2023/12/08 04:44:13;;;;;;;24.83;11.95;;;-1.40;39.80;;;;;;4977217;28;46455;-67
2023/12/08 04:46:38;;;;;;;21.93;11.80;;;-1.40;40.90;;;;;;4977287;28;47124;-67
2023/12/08 04:49:04;;;;;;;20.63;12.00;;;-1.30;39.50;;;;;;4977975;28;46553;-67
2023/12/08 04:51:29;;;;;;;54.63;22.30;;;-1.30;39.70;;;;;;4971296;28;46388;-68
2023/12/08 04:53:55;;;;;;;20.87;12.87;;;-1.30;39.50;;;;;;4977171;28;46754;-66
2023/12/08 04:56:21;;;;;;;26.30;12.80;;;-1.30;39.80;;;;;;4975654;28;46497;-67
2023/12/08 04:58:47;;;;;;;24.90;13.00;;;-1.30;39.80;;;;;;4977950;28;46359;-67
2023/12/08 05:01:14;;;;;;;26.00;12.68;;;-1.20;39.80;;;;;;4976905;28;46505;-67
2023/12/08 05:03:40;;;;;;;55.10;24.40;;;-1.20;39.90;;;;;;4976871;28;46317;-64
2023/12/08 05:06:08;;;;;;;46.33;20.50;;;-1.10;39.90;;;;;;4977023;28;46354;-65
2023/12/08 05:08:34;;;;;;;28.23;12.65;;;-1.10;39.90;;;;;;4978296;28;46372;-65
2023/12/08 05:10:59;;;;;;;22.77;14.10;;;-1.10;39.90;;;;;;4977746;28;46396;-65
2023/12/08 05:13:25;;;;;;;20.83;12.50;;;-1.00;40.00;;;;;;4979111;28;46486;-66
2023/12/08 05:15:51;;;;;;;22.67;12.40;;;-1.00;39.80;;;;;;4975485;28;46268;-67
2023/12/08 05:18:16;;;;;;;20.10;11.80;;;-0.90;39.80;;;;;;4978364;28;46490;-66
2023/12/08 05:20:42;;;;;;;20.20;12.03;;;-0.90;39.70;;;;;;4976069;28;46399;-66
2023/12/08 05:23:07;;;;;;;20.37;11.23;;;-1.00;39.80;;;;;;4979762;28;46404;-67
2023/12/08 05:25:34;;;;;;;25.77;13.50;;;-1.00;40.00;;;;;;4977278;28;46074;-67
2023/12/08 05:28:00;;;;;;;21.90;13.05;;;-1.00;40.20;;;;;;4975555;28;46078;-67
2023/12/08 05:30:27;;;;;;;24.03;13.30;;;-1.10;40.30;;;;;;4977343;28;46468;-66
2023/12/08 05:32:53;;;;;;;24.48;13.07;;;-1.10;40.50;;;;;;4976082;28;46617;-67
2023/12/08 05:35:19;;;;;;;24.30;13.43;;;-1.10;40.70;;;;;;4976016;28;47404;-68
2023/12/08 05:37:45;;;;;;;26.43;14.10;;;-1.10;41.00;;;;;;4976644;28;46416;-66
2023/12/08 05:40:11;;;;;;;22.23;12.77;;;-1.20;41.10;;;;;;4978426;28;46405;-67
2023/12/08 05:42:37;;;;;;;25.52;13.88;;;-1.20;41.20;;;;;;4972602;28;46467;-67
2023/12/08 05:45:03;;;;;;;23.50;11.90;;;-1.20;41.20;;;;;;4978346;28;46516;-67
2023/12/08 05:47:29;;;;;;;22.30;11.57;;;-1.20;41.20;;;;;;4973775;28;46440;-65
2023/12/08 05:49:54;;;;;;;22.43;12.30;;;-1.20;41.30;;;;;;4977628;28;46420;-68
2023/12/08 05:52:20;;;;;;;22.47;12.67;;;-1.20;41.20;;;;;;4977065;28;46386;-67
2023/12/08 05:54:46;;;;;;;21.97;12.20;;;-1.10;41.00;;;;;;4972497;28;47224;-68
2023/12/08 05:57:11;;;;;;;22.77;13.20;;;-1.10;40.80;;;;;;4974670;28;46099;-66
2023/12/08 05:59:37;;;;;;;24.83;12.20;;;-1.10;40.70;;;;;;4976351;28;46820;-65
2023/12/08 06:02:02;;;;;;;21.90;12.07;;;-1.00;40.60;;;;;;4976181;28;45890;-68
2023/12/08 06:04:28;;;;;;;25.23;13.67;;;-0.90;40.40;;;;;;4975266;28;46476;-66
2023/12/08 06:06:54;;;;;;;22.13;12.70;;;-0.90;40.00;;;;;;4978289;28;46473;-66
2023/12/08 06:09:19;;;;;;;21.53;12.07;;;-0.80;39.70;;;;;;4979952;28;46452;-66
2023/12/08 06:11:45;;;;;;;23.43;11.80;;;-0.80;39.50;;;;;;4977881;28;46581;-68
2023/12/08 06:14:10;;;;;;;21.30;11.80;;;-0.80;39.60;;;;;;4975076;28;46406;-69
2023/12/08 06:16:36;;;;;;;19.27;11.90;;;-0.90;39.50;;;;;;4973288;28;46487;-65
2023/12/08 06:19:04;;;;;;;23.85;15.70;;;-0.80;39.60;;;;;;4973332;28;46519;-70
2023/12/08 06:21:30;;;;;;;23.42;13.48;;;-0.80;39.80;;;;;;4974700;28;46664;-67
2023/12/08 06:23:56;;;;;;;20.80;12.67;;;-0.80;40.50;;;;;;4976504;28;46790;-67
2023/12/08 06:26:22;;;;;;;19.87;11.77;;;-0.80;40.30;;;;;;4972453;28;46439;-67
2023/12/08 06:28:47;;;;;;;25.53;11.93;;;-0.80;40.40;;;;;;4976394;28;46617;-66
2023/12/08 06:31:13;;;;;;;23.20;13.30;;;-0.90;40.50;;;;;;4981376;28;46535;-67
2023/12/08 06:33:38;;;;;;;23.43;12.60;;;-0.90;40.70;;;;;;4977500;28;46507;-67
2023/12/08 06:36:05;;;;;;;19.77;12.33;;;-0.80;40.70;;;;;;4976096;28;46489;-68
2023/12/08 06:38:30;;;;;;;21.00;12.30;;;-0.80;40.70;;;;;;4975625;28;46461;-68
2023/12/08 06:40:56;;;;;;;20.67;12.10;;;-0.70;40.90;;;;;;4978802;28;46528;-66
2023/12/08 06:43:22;;;;;;;26.70;11.60;;;-0.70;40.80;;;;;;4974728;28;46474;-66
2023/12/08 06:45:47;;;;;;;17.10;10.50;;;-0.70;40.90;;;;;;4972029;28;46430;-67
2023/12/08 06:48:13;;;;;;;21.47;11.67;;;-0.70;40.90;;;;;;4972335;28;46777;-68
2023/12/08 06:50:38;;;;;;;18.93;11.17;;;-0.70;40.70;;;;;;4973468;28;46420;-68
2023/12/08 06:53:04;;;;;;;22.03;12.17;;;-0.60;40.80;;;;;;4976810;28;46585;-68
2023/12/08 06:55:29;;;;;;;17.77;11.43;;;-0.50;40.80;;;;;;4973183;28;46214;-66
2023/12/08 06:57:55;;;;;;;22.63;11.93;;;-0.50;40.60;;;;;;4976403;28;46338;-67
2023/12/08 07:00:21;;;;;;;22.73;10.93;;;-0.40;40.20;;;;;;4976491;28;46508;-68
2023/12/08 07:02:46;;;;;;;26.43;13.53;;;-0.40;39.90;;;;;;4975790;28;46495;-67
2023/12/08 07:05:12;;;;;;;30.17;15.17;;;-0.30;39.70;;;;;;4975688;28;46443;-68
2023/12/08 07:07:38;;;;;;;32.47;15.60;;;-0.30;39.50;;;;;;4977176;28;46356;-67
2023/12/08 07:10:04;;;;;;;33.83;15.10;;;-0.30;39.50;;;;;;4978833;28;46010;-66
2023/12/08 07:12:30;;;;;;;50.28;20.30;;;-0.20;39.40;;;;;;4977219;28;46569;-66
2023/12/08 07:14:56;;;;;;;36.75;17.70;;;-0.20;39.30;;;;;;4977716;28;46528;-66
2023/12/08 07:17:22;;;;;;;27.13;14.20;;;-0.10;39.30;;;;;;4979412;28;46535;-68
2023/12/08 07:19:48;;;;;;;23.23;13.07;;;0.00;39.30;;;;;;4981264;28;46511;-67
2023/12/08 07:22:14;;;;;;;25.10;13.80;;;0.10;39.10;;;;;;4977657;28;46420;-68
2023/12/08 07:24:40;;;;;;;22.80;13.07;;;0.10;38.90;;;;;;4979123;28;46400;-68
2023/12/08 07:27:06;;;;;;;20.20;12.10;;;0.20;39.20;;;;;;4977929;28;46571;-66
2023/12/08 07:29:31;;;;;;;20.90;11.73;;;0.20;39.20;;;;;;4967515;28;46490;-67
2023/12/08 07:31:57;;;;;;;21.53;12.13;;;0.20;38.90;;;;;;4978264;28;46527;-66
2023/12/08 07:34:22;;;;;;;24.73;12.10;;;0.30;38.80;;;;;;4979844;28;46469;-67
2023/12/08 07:36:48;;;;;;;19.73;10.17;;;0.50;38.60;;;;;;4979419;28;46584;-66
2023/12/08 07:39:14;;;;;;;21.30;13.13;;;0.50;38.60;;;;;;4977368;28;46369;-67
2023/12/08 07:41:40;;;;;;;19.10;11.97;;;0.50;38.40;;;;;;4979088;28;46453;-68
2023/12/08 07:44:05;;;;;;;23.57;13.87;;;0.50;38.50;;;;;;4978301;28;46479;-68
2023/12/08 07:46:31;;;;;;;22.27;12.50;;;0.60;38.40;;;;;;4979472;28;45862;-66
2023/12/08 07:48:58;;;;;;;22.45;12.50;;;0.70;38.30;;;;;;4976938;28;46600;-67
2023/12/08 07:51:23;;;;;;;20.77;10.73;;;0.70;38.10;;;;;;4978559;28;46229;-65
2023/12/08 07:53:49;;;;;;;17.27;9.83;;;0.70;38.20;;;;;;4980717;28;46441;-68
2023/12/08 07:56:14;;;;;;;20.50;10.67;;;0.80;38.20;;;;;;4977074;28;45876;-67
2023/12/08 07:58:40;;;;;;;15.40;9.60;;;0.90;38.50;;;;;;4979498;28;46433;-68
2023/12/08 08:01:06;;;;;;;17.67;9.43;;;1.00;38.40;;;;;;4976133;28;46390;-67
2023/12/08 08:03:31;;;;;;;17.67;10.47;;;1.10;38.30;;;;;;4978864;28;46383;-67
2023/12/08 08:05:57;;;;;;;15.37;8.63;;;1.20;38.00;;;;;;4977454;28;46810;-66
2023/12/08 08:08:23;;;;;;;15.57;9.30;;;1.30;37.90;;;;;;4993567;28;46652;-66
2023/12/08 08:10:48;;;;;;;20.70;10.03;;;1.30;37.90;;;;;;4978553;28;47290;-67
2023/12/08 08:13:14;;;;;;;18.80;11.20;;;1.50;37.80;;;;;;4977544;28;46235;-65
2023/12/08 08:15:40;;;;;;;19.97;12.27;;;1.70;38.00;;;;;;4978801;28;46764;-66
2023/12/08 08:18:06;;;;;;;18.40;10.70;;;1.70;38.00;;;;;;4977667;28;46574;-66
2023/12/08 08:20:32;;;;;;;18.67;10.98;;;1.70;38.00;;;;;;4975234;28;47244;-66
2023/12/08 08:22:57;;;;;;;17.10;10.77;;;1.80;37.90;;;;;;4973844;28;46705;-67
2023/12/08 08:25:24;;;;;;;17.07;10.70;;;2.10;38.00;;;;;;4979859;28;46314;-66
2023/12/08 08:27:53;;;;;;;18.67;10.68;;;2.20;37.70;;;;;;4977442;28;46379;-68
2023/12/08 08:30:19;;;;;;;20.30;11.25;;;2.30;37.50;;;;;;4977373;28;47326;-67
2023/12/08 08:32:44;;;;;;;17.35;10.00;;;2.50;37.20;;;;;;4978868;28;46425;-67
2023/12/08 08:35:10;;;;;;;20.17;11.53;;;2.60;36.70;;;;;;4977821;28;46480;-68
2023/12/08 08:37:36;;;;;;;16.70;9.33;;;2.70;38.10;;;;;;4977617;28;46591;-68
2023/12/08 08:40:02;;;;;;;14.60;9.73;;;2.70;37.40;;;;;;4977439;28;46462;-67
2023/12/08 08:42:28;;;;;;;22.98;11.82;;;2.80;37.40;;;;;;4976929;28;46463;-68
2023/12/08 08:44:53;;;;;;;21.17;10.50;;;2.90;36.70;;;;;;4977052;28;46269;-68
2023/12/08 08:47:19;;;;;;;23.87;10.23;;;2.80;36.80;;;;;;4977813;28;46481;-68
2023/12/08 08:49:45;;;;;;;12.90;8.03;;;2.90;37.30;;;;;;4978752;28;47166;-67
2023/12/08 08:52:12;;;;;;;13.70;8.47;;;3.10;36.80;;;;;;4978006;28;46371;-67
2023/12/08 08:54:37;;;;;;;17.95;8.57;;;3.30;36.50;;;;;;4978862;28;46517;-67
2023/12/08 08:57:04;;;;;;;13.30;6.97;;;3.50;36.40;;;;;;4977062;28;46487;-67
2023/12/08 08:59:30;;;;;;;13.50;7.30;;;3.50;36.60;;;;;;4977915;28;47224;-67
2023/12/08 09:01:56;;;;;;;9.73;6.50;;;3.60;36.70;;;;;;4976758;28;46469;-67
2023/12/08 09:04:22;;;;;;;11.50;7.00;;;3.70;36.30;;;;;;4976622;28;46432;-67
2023/12/08 09:06:47;;;;;;;11.13;7.10;;;3.80;35.90;;;;;;4975199;28;46401;-68
2023/12/08 09:09:13;;;;;;;16.07;8.93;;;3.90;36.10;;;;;;4977146;28;46358;-67
2023/12/08 09:11:39;;;;;;;13.43;8.67;;;4.00;35.30;;;;;;4974603;28;46412;-66
2023/12/08 09:14:04;;;;;;;12.23;7.27;;;4.20;34.40;;;;;;4977029;28;46419;-67
2023/12/08 09:16:30;;;;;;;13.43;7.93;;;4.40;34.60;;;;;;4977721;28;46503;-67
2023/12/08 09:18:55;;;;;;;10.90;6.77;;;4.50;33.80;;;;;;4976485;28;46451;-66
2023/12/08 09:21:21;;;;;;;12.47;6.80;;;4.60;33.60;;;;;;4977262;28;46643;-68
2023/12/08 09:23:46;;;;;;;11.10;6.80;;;4.60;33.50;;;;;;4977334;28;46465;-68
2023/12/08 09:26:12;;;;;;;12.53;7.40;;;4.70;33.30;;;;;;4975054;28;46404;-68
2023/12/08 09:28:38;;;;;;;10.37;7.60;;;4.80;33.10;;;;;;4976012;28;46456;-67
2023/12/08 09:31:03;;;;;;;15.93;10.10;;;4.70;33.40;;;;;;4975920;28;46497;-66
2023/12/08 09:33:29;;;;;;;18.23;10.20;;;4.60;33.80;;;;;;4974262;28;46508;-66
2023/12/08 09:35:55;;;;;;;16.73;10.33;;;4.50;34.60;;;;;;4975414;28;46560;-68
2023/12/08 09:38:21;;;;;;;17.60;10.10;;;4.40;34.60;;;;;;4974423;28;47159;-68
2023/12/08 09:40:46;;;;;;;13.27;8.93;;;4.50;34.60;;;;;;4975631;28;46651;-67
2023/12/08 09:43:25;;;;;;;17.73;9.57;;;4.50;34.60;;;;;;4970300;28;46723;-65
2023/12/08 09:45:53;;;;;;;16.17;9.77;;;4.60;34.80;;;;;;4975496;28;46526;-65
2023/12/08 09:48:21;;;;;;;15.30;9.85;;;4.70;34.70;;;;;;4973961;28;46484;-66
2023/12/08 09:50:50;;;;;;;18.13;10.60;;;4.80;34.10;;;;;;4976398;28;46462;-66
2023/12/08 09:53:16;;;;;;;15.13;9.32;;;4.80;34.00;;;;;;4977187;28;46407;-66
2023/12/08 09:55:43;;;;;;;18.50;11.43;;;4.70;34.80;;;;;;4975039;28;46679;-67
2023/12/08 09:58:10;;;;;;;20.73;12.60;;;4.90;34.10;;;;;;4978022;28;47216;-66
2023/12/08 10:00:37;;;;;;;16.90;10.50;;;5.10;33.80;;;;;;4976556;28;46428;-67
2023/12/08 10:03:03;;;;;;;16.25;9.90;;;5.10;33.20;;;;;;4976454;28;46377;-67
2023/12/08 10:05:28;;;;;;;19.13;11.23;;;5.20;33.10;;;;;;4976772;28;46520;-65
2023/12/08 10:07:55;;;;;;;16.50;9.83;;;5.40;32.80;;;;;;4976921;28;46298;-68
2023/12/08 10:10:21;;;;;;;19.08;11.65;;;5.40;32.70;;;;;;4977913;28;46302;-68
2023/12/08 10:12:47;;;;;;;23.80;13.00;;;5.40;32.40;;;;;;4974530;28;46661;-68
2023/12/08 10:15:15;;;;;;;24.77;12.87;;;5.60;32.30;;;;;;4973310;28;46456;-67
2023/12/08 10:17:51;;;;;;;24.87;13.30;;;5.70;31.90;;;;;;4972025;28;46452;-67
2023/12/08 10:20:19;;;;;;;22.23;13.50;;;5.80;31.30;;;;;;4975280;28;46404;-67
2023/12/08 10:22:50;;;;;;;18.07;10.97;;;5.90;30.40;;;;;;4976320;28;46560;-66
2023/12/08 10:25:20;;;;;;;15.33;10.57;;;5.90;30.40;;;;;;4977955;28;46424;-66
2023/12/08 10:27:49;;;;;;;14.40;9.27;;;5.80;31.10;;;;;;4976168;28;46545;-66
2023/12/08 10:30:15;;;;;;;19.50;11.20;;;5.90;31.10;;;;;;4972640;28;46801;-66
2023/12/08 10:32:42;;;;;;;25.17;11.30;;;6.10;30.40;;;;;;4974394;28;46010;-67
2023/12/08 10:35:10;;;;;;;18.90;11.07;;;6.20;29.90;;;;;;4976865;28;46774;-66
2023/12/08 10:37:36;;;;;;;13.87;9.00;;;6.20;29.60;;;;;;4974602;28;46361;-67
2023/12/08 10:40:02;;;;;;;20.27;10.87;;;6.30;29.70;;;;;;4973256;28;46447;-66
2023/12/08 10:42:27;;;;;;;15.80;10.07;;;6.40;29.50;;;;;;4979607;28;46539;-67
2023/12/08 10:44:53;;;;;;;15.57;9.97;;;6.50;29.30;;;;;;4981821;28;46636;-67
2023/12/08 10:47:20;;;;;;;15.97;9.03;;;6.60;29.20;;;;;;4978528;28;47164;-67
2023/12/08 10:49:48;;;;;;;33.40;11.87;;;6.70;29.80;;;;;;4977367;28;46756;-67
2023/12/08 10:52:15;;;;;;;19.93;11.50;;;6.70;29.10;;;;;;4980274;28;46456;-67
2023/12/08 10:54:41;;;;;;;36.33;16.20;;;6.80;29.00;;;;;;4977207;28;46399;-67
2023/12/08 10:57:07;;;;;;;28.67;14.63;;;6.90;28.90;;;;;;4979302;28;46445;-66
2023/12/08 10:59:37;;;;;;;27.10;13.90;;;6.80;28.60;;;;;;4976606;28;46433;-68
2023/12/08 11:02:08;;;;;;;22.20;12.33;;;6.80;28.40;;;;;;4977896;28;46513;-68
2023/12/08 11:04:40;;;;;;;17.43;10.07;;;6.80;28.50;;;;;;4979720;28;46448;-67
2023/12/08 11:07:16;;;;;;;13.17;9.67;;;6.90;28.30;;;;;;4980101;28;46449;-67
2023/12/08 11:09:42;;;;;;;13.83;8.77;;;6.90;28.40;;;;;;4976429;28;46573;-67
2023/12/08 11:12:13;;;;;;;19.10;10.77;;;6.80;28.60;;;;;;4975346;28;46457;-67
2023/12/08 11:14:48;;;;;;;18.40;10.50;;;6.80;28.70;;;;;;4985061;28;46459;-67
2023/12/08 11:17:30;;;;;;;17.57;10.50;;;6.70;29.10;;;;;;4979430;28;47270;-67
2023/12/08 11:19:58;;;;;;;18.10;11.48;;;6.60;29.40;;;;;;4977660;28;45953;-67
2023/12/08 11:22:24;;;;;;;32.77;14.30;;;6.80;28.20;;;;;;4979863;28;46471;-67
2023/12/08 11:24:50;;;;;;;20.60;13.10;;;6.80;28.10;;;;;;4980296;28;46444;-68
2023/12/08 11:27:36;;;;;;;19.50;12.43;;;6.80;28.30;;;;;;4978473;28;46070;-68
2023/12/08 11:30:27;;;;;;;25.30;14.00;;;6.90;28.00;;;;;;4977787;28;46448;-65
2023/12/08 11:33:12;;;;;;;20.67;13.87;;;7.00;27.80;;;;;;4979144;28;46649;-66
2023/12/08 11:35:38;;;;;;;24.80;15.50;;;7.10;27.70;;;;;;4979726;28;46393;-67
2023/12/08 11:38:05;;;;;;;22.13;13.50;;;7.20;27.50;;;;;;4977958;28;47124;-67
2023/12/08 11:40:31;;;;;;;29.63;17.83;;;7.20;27.60;;;;;;4979282;28;46401;-68
2023/12/08 11:42:57;;;;;;;24.57;16.10;;;6.80;28.30;;;;;;4979536;28;46398;-67
2023/12/08 11:45:23;;;;;;;27.83;17.27;;;6.60;29.00;;;;;;4976622;28;46474;-65
2023/12/08 11:47:49;;;;;;;26.93;17.57;;;6.80;28.50;;;;;;4979239;28;47047;-66
2023/12/08 11:50:17;;;;;;;26.50;15.60;;;6.90;28.30;;;;;;4979203;28;46382;-67
2023/12/08 11:52:42;;;;;;;27.53;15.70;;;7.00;29.00;;;;;;4977591;28;46603;-67
2023/12/08 11:55:21;;;;;;;24.60;15.43;;;7.00;28.10;;;;;;4972378;28;46203;-66
2023/12/08 11:57:46;;;;;;;21.67;14.67;;;7.10;28.30;;;;;;4972893;28;47179;-66
2023/12/08 12:00:17;;;;;;;24.03;15.40;;;7.10;28.00;;;;;;4975990;28;46589;-67
2023/12/08 12:02:43;;;;;;;26.27;16.07;;;7.10;27.90;;;;;;4975847;28;46485;-67
2023/12/08 12:05:10;;;;;;;22.93;13.40;;;7.10;28.10;;;;;;4975866;28;46681;-67
2023/12/08 12:07:37;;;;;;;21.10;13.40;;;7.20;27.90;;;;;;4976634;28;47024;-66
2023/12/08 12:10:07;;;;;;;22.50;13.87;;;7.20;27.90;;;;;;4974871;28;46455;-65
2023/12/08 12:12:35;;;;;;;22.90;13.23;;;7.10;27.90;;;;;;4976768;28;46381;-66
2023/12/08 12:15:03;;;;;;;19.50;13.17;;;7.00;28.00;;;;;;4977672;28;46424;-65
2023/12/08 12:17:29;;;;;;;19.30;12.97;;;7.00;28.00;;;;;;4975058;28;47125;-67
2023/12/08 12:19:55;;;;;;;18.87;12.73;;;7.10;28.10;;;;;;4976871;28;46427;-64
2023/12/08 12:22:21;;;;;;;19.97;13.13;;;7.10;27.90;;;;;;4981647;28;46476;-66
2023/12/08 12:24:47;;;;;;;20.67;13.13;;;7.00;27.90;;;;;;4977942;28;46462;-65
2023/12/08 12:27:14;;;;;;;19.90;13.00;;;7.00;28.00;;;;;;4977321;28;47428;-67
2023/12/08 12:29:40;;;;;;;19.57;12.00;;;7.00;28.00;;;;;;4973188;28;46405;-67